Timeline UpdatesTrip UpdatesNews PostsPvt PostsTravel TipsAdmin PostsConv PostsFollowed PostsChat RequestsBlog PostsPNR Posts

Disclaimer
Search
 
 
Fri Aug 22, 2014 11:25:09 ISTHomeTrainsΣChainsAtlasPNRForumGalleryNewsFAQTripsMembersLoginFeedback
No Recent News for this Train
Other Trains in the News **new
Latest...
.
Sat Sep 28, 2013 (02:33PM)
⇐ Return Journey: Train# 12164

12163/Dadar - Chennai Egmore SF Express

Feb 14 2014 (11:18AM)
Change Departure Station:
Change Arrival Station:
Post a Train Travel TipPost a Train Travel Tip **new
Post a Comment/Question/Picture/VideoPost a Comment/Question/Picture/Video
Pantry/Catering
✓ Pantry Car Avbl
✓ Catering Avbl
RSA - Rake Sharing
11063/64 Salem-Chennai express
Rake/Coach Composition
Loco-SLR-GEN-S9-S1-S2-S3-S4-S5-S6-S7-PC-S8-B2-B1-A1-HA1-GEN-SLR
Loco
WCAM 2/2P/3 (DR-PUNE) WDM 3A GY/GTL (PUNE-GTL) WAP 4 ED/RPM (GTL-MS)
News    PNR    Forum    Time-Table    Availability    Fare Chart    Map    Arr/Dep History    Trips    Gallery    ΣChains    X/O    Timeline    
Travel Time: 23h 15m    22 halts    Distance: 1278 km    Avg Speed: 54 km/hr
Type: SuperFast
Zone: CR/Central
Departs @ 20:30 (Avg 2m late)
Platform# 7
SMTWTFS
Mumbai Dadar Central/DR 
Arrives @ 19:45 +1 night (Avg 5m late)
Platform# 7
SMTWTFS
Chennai Egmore/MS 

22 halts. 221 intermediate Stations between Mumbai Dadar Central and Chennai Egmore

Hide intermediate Stations  Show Old Time-Table

#CodeStation NameX/OArrivesAvgDepartsAvgHaltPFDay#KmSpeedElevZoneAddress
1DR»Mumbai Dadar Central (8)»  -20:30+2710.0677mCRMumbai 400014, Maharashtra
1.1MTNMumbai Matunga (4)  20:31-20:31-  11.4 677mCRMumbai, Maharashtra
1.2SINMumbai Sion (4)X  20:34-20:34-  14.1 677mCRMumbai, Maharashtra
1.3CLAKurla Junction (8)  20:36-20:36-  16.7 678mCRMumbai, Maharashtra
1.4LTTMumbai Lokmanya Tilak Terminus (5)  20:37-20:37-  17.8 677mCRMumbai, Maharashtra
1.5VVHVidyavihar (2)  20:38-20:38-  19.1 678mCRMumbai, Maharashtra
1.6GCGhatkopar (4)X  20:39-20:39-  110.4 6711mCRMumbai 400086, Maharashtra
1.7VKVikhroli (4)X  20:43-20:43-  114.1 6710mCRMumbai, Maharashtra
1.8KJMGKanjur Marg (2)  20:44-20:44-  116.0 675mCRMumbai, Maharashtra
1.9BNDBhandup (4)  20:46-20:46-  117.8 677mCRMumbai 400078, Maharashtra
1.10NHUNahur (2)  20:48-20:48-  119.5 675mCRMumbai, Maharashtra
1.11MLNDMulund (4)O  20:50-20:50-  121.7 6712mCRMumbai, Maharashtra
1.12TNAThane (10)  20:52-20:52-  124.2 6710mCRThane (West) 400602, Maharashtra
1.13KLVAKalva (2)X  20:54-20:54-  126.8 675mCRKalva, Maharashtra
1.14MBQMumbra (2)  20:58-20:58-  131.2 678mCRMumbra, Maharashtra
1.15DIVADiva Junction (6)X  21:00-21:00-  133.8 673mCRJn Pt TNA/PNVL/KYN/BSR Diva, Maharashtra
1.16KOPRKopar (4)  21:04-21:04-  138.2 670mCRKopar, Maharashtra
1.17DIDombivli (5)X  21:06-21:06-  139.5 6711mCRDombivli, Maharashtra
1.18THKThakurli (2)  21:07-21:07-  140.8 6714mCRThakurli, Maharashtra
2KYNKalyan Junction (8)  21:10+1321:15+145m5144.54910mCRKalyan 421301, Maharashtra
2.1VLDIVithalwadi (2)  21:18-21:18-  146.8 4913mCRVitthalwadi, Maharashtra
2.2ULNRUlhasnagar (2)  21:20-21:20-  148.7 4914mCRUlhasnagar Camp No.3, Maharashtra
2.3ABHAmbernath (3)X  21:23-21:23-  151.2 4923mCRMaharashtra 421502, Maharashtra
2.4BUDBadlapur (3)  21:33-21:33-  158.8 4918mCRBadlapur-421 503, Maharashtra
2.5VGIVangani (2)X  21:46-21:46-  169.6 4942mCRVangani, Maharashtra
2.6SHLUShelu (2)X  21:51-21:51-  173.6 4940mCRShelu, Maharashtra
2.7NRLNeral Junction (2)  21:56-21:56-  177.7 4942mCRNeral-410101 Dist. Raigad, Maharashtra
2.8BVSBhivpuri Road (2)  22:04-22:04-  184.4 4950mCRBhivpuri Road, Maharashtra
2.9KJTKarjat Junction (4)O22:13-22:13-  191.3 4957mCRKarjat, Maharashtra
2.10PDIPalasdhari (4)  22:16-22:16-  194.2 4967mCRDist Raigad, Maharashtra
2.11TKWThakurvadi  22:28-22:28-  1103.7 49281mCRKhandala, Maharashtra
2.12NNCNNagnath Cabin (1)  22:28-22:28-  1104.1 49289mCRDolavali Khopoli (Chinchavali Marge), Maharashtra
2.13NAGCNagargaliX  22:32-22:32-  1107.2 49354mCRKhopoli, Maharashtra
2.14MHLCMonkey Hill (2)  22:37-22:37-  1111.0 49414mCRKhandala, Maharashtra
2.15KADKhandala (3)  22:43-22:43-  1116.2 49545mCRKhandala 410301, Maharashtra
3LNLLonavala (3)  22:48+922:50+102m11120.051623mCRLonavala 410401, Maharashtra
3.1MVLMalavli (2)  22:58-22:58-  1127.1 51616mCRMalavli 410405, Maharashtra
3.2KMSTKamshet (2)X  23:09-23:09-  1135.9 51607mCRDist. Pune 410405, Maharashtra
3.3KNHEKanhe (2)  23:14-23:14-  1140.4 51626mCRKanhe, Maharashtra
3.4VDNVadgaon (2)  23:20-23:20-  1145.5 51623mCRVadgaon, Maharashtra
3.5TGNTalegaon (2)  23:25-23:25-  1149.5 51619mCRTalegaon Dabhade 410501, Maharashtra
3.6GRWDGhorawadi (2)  23:28-23:28-  1152.5 51596mCRGhorawadi, Maharashtra
3.7SLRWShelarwadi (2)  23:32-23:32-  1155.3 51594mCRShelarwadi Dist. Pune, Maharashtra
3.8BGWIBegdaewadi  23:32-23:32-  1155.5 51594mCRTalegaon, Maharashtra
3.9BGWBegdewadi (2)  23:32-23:32-  1155.6 51594mCRBegdewadi, Maharashtra
3.10DEHRDehu Road (4)X  23:36-23:36-  1159.1 51611mCRDehu 412101, Maharashtra
3.11AKRDAkurdi (2)X  23:42-23:42-  1164.1 51583mCRPune 411035, Maharashtra
3.12CCHChinchwad (4)  23:46-23:46-  1167.3 51573mCRPune 411033, Maharashtra
3.13PMPPimpri (2)  23:48-23:48-  1169.5 51570mCRPune 411018, Maharashtra
3.14KSWDKasarwadi (2)X  23:51-23:51-  1172.1 51558mCRPune 411034, Maharashtra
3.15DAPDDapodi (2)X  23:55-23:55-  1175.4 51558mCRPune 411012, Maharashtra
3.16KKKhadki (3)  23:58-23:58-  1177.6 51562mCRPune 411003, Maharashtra
3.17SVJRShivajinagar (2)  00:02-00:02-  2181.2 51549mCRPune 411005, Maharashtra
4PUNEPune Junction (6)00:05+100:10+125m32183.670556mCRPune 411001, Maharashtra
4.1GPRWGhorpuri West (2)  00:12-00:12-  2185.8 70552mCRPune 411001, Maharashtra
4.2HDPHadapsar (3)  00:15-00:15-  2189.4 70554mCRPune 411028, Maharashtra
4.3MJBKManjari Budruk (2)X  00:19-00:19-  2194.4 70550mCRPune 412307, Maharashtra
4.4LONILoni (2)X  00:24-00:24-  2200.0 70541mCRPune 412201, Maharashtra
4.5URIUruli (2)X  00:35-00:35-  2212.4 70553mCRDist. Pune 412202, Maharashtra
4.6YTYevat (2)  00:45-00:45-  2225.0 70558mCRDist. Pune 412214, Maharashtra
4.7KTTKhutbav (2)  00:51-00:51-  2231.2 70558mCRShirur-Daund Rd Daund, Maharashtra
4.8KDGKedgaon (2)X  00:56-00:56-  2237.6 70544mCRDist. Pune 412203, Maharashtra
4.9KDTNKadethan  01:01-01:01-  2242.8 70532mCRDaund, Maharashtra
4.10PAAPatas (3)X  01:05-01:05-  2247.6 70532mCRDist. Pune 412219, Maharashtra
4.11DDAPDaund Patas Road  01:12-01:12-  2256.4 70519mCRDaund, Maharashtra
4.12DDJADaund Goods Yard (2)  01:13-01:13-  2257.5 70515mCRNew Daund, Maharashtra
4.13DDAMDaund Marshalling Yard  01:14-01:14-  2258.5 70517mCROld Daund, Maharashtra
4.14DDDaund Junction (7)  01:15-01:15-  2259.2 70521mCRNew Daund Dist. Pune 413801, Maharashtra
4.15BRBBoribialX  01:24-01:24-  2269.5 70527mCRNew Daund, Maharashtra
4.16MLMMalthan  01:31-01:31-  2277.8 70524mCRDaund, Maharashtra
4.17BGVNBhigwan (2)  01:39-01:39-  2286.9 70509mCRDaund, Maharashtra
4.18JNTRJinti Road  01:48-01:48-  2298.4 70530mCRDaund, Maharashtra
4.19PRWDParewadi (2)XO  01:56-01:56-  2307.6 70515mCRIndapur, Maharashtra
4.20WSBWashimbe (1)X  02:02-02:02-  2314.8 70529mCRWashimbe, Maharashtra
4.21PPJPophlajX  02:11-02:11-  2324.2 70529mCRJeur - Kettur Road, Maharashtra
4.22JEURJeur (1)X  02:18-02:18-  2332.9 70526mCRJeur, Maharashtra
4.23BLNIBhalwani (2)  02:25-02:25-  2340.7 70521mCRBhalwani, Maharashtra
4.24KEMKem (2)  02:32-02:32-  2349.0 70548mCRKem, Maharashtra
4.25DHSDhavalas (2)  02:39-02:39-  2357.5 70543mCRDhavalas, Maharashtra
4.26KWVKurduvadi Junction (4)  02:47-02:47-  2367.1 70516mCRKurduvadi Dist-Solapur, Maharashtra
4.27WDSWadsinge  02:54-02:54-  2375.3 70493mCRWadsinge, Maharashtra
4.28MAMadha (2)  03:01-03:01-  2383.0 70481mCRSolapur, Maharashtra
4.29WKAVakav (1)  03:07-03:07-  2390.2 70470mCRSolapur, Maharashtra
4.30AAGAngarO  03:13-03:13-  2396.6 70470mCRAnagar Railway Station, Maharashtra
4.31MKPTMalikpeth  03:19-03:19-  2403.6 70464mCRState Highway 74, Maharashtra
4.32MOMohol (2)X  03:26-03:26-  2412.8 70458mCRSolapur, Maharashtra
4.33MVEMundhewadi (2)X  03:33-03:33-  2420.8 70462mCRMundhewadi, Maharashtra
4.34PKPakni (2)  03:41-03:41-  2429.7 70451mCRPakni, Maharashtra
4.35BALEBale (2)X  03:49-03:49-  2439.7 70452mCRSolapur, Maharashtra
5SURSolapur (5)X  03:55+1804:05+2010m22446.155461mCRSolapur 413001, Maharashtra
5.1TKWDTikekarwadi (2)X  04:13-04:13-  2453.0 55477mCRSolapur, Maharashtra
5.2HGHotgi Junction (3)O  04:21-04:21-  2461.1 55473mCRHotgi 413215, Maharashtra
5.3TLTTilati  04:32-04:32-  2470.4 55454mCRAkalkot Road, Maharashtra
5.4AKORAkalkot Road (2)  04:44-04:44-  2481.4 55456mCRDist Solapur, Maharashtra
5.5NGSNagansurX  04:49-04:49-  2486.8 55487mCRSolapur, Maharashtra
5.6BOTBorotiX  04:59-04:59-  2495.3 55466mCRSolapur, Maharashtra
5.7DUDDudhani (2)  05:14-05:14-  2509.3 55457mCRSolapur, Maharashtra
5.8KUIKulaliX  05:24-05:24-  2518.9 55455mCRBhognalli - Ravoor - Dudhani Rd, Karnataka
5.9GDGNGaudgaon  05:32-05:32-  2526.1 55444mCRBhognalli Sindnoor Rd, Karnataka
5.10GURGanagapur Road  05:39-05:39-  2532.3 55445mCRDist Gulbarga, Karnataka
5.11HHDHunsihadgil  05:46-05:46-  2538.6 55479mCRGulburga, Karnataka
5.12SVGSawalgiX  05:54-05:54-  2546.0 55462mCRGulburga, Karnataka
5.13BBDBablad  06:02-06:02-  2553.3 55461mCRGulburga, Karnataka
6GRGulbarga (4)  06:08+906:10+112m22558.770458mCRGulbarga 585101, Karnataka
6.1HQRHirenanduruX  06:18-06:18-  2567.5 70469mCRNandoor K, Karnataka
6.2MRMartur  06:24-06:24-  2575.1 70427mCRGulbarga, Karnataka
7SDBShahabad (3)  06:33+1206:35+122m22585.415403mCRShahabad, Karnataka
8WADIWadi Junction (4)X  07:15-207:20+05m22595.578431mCRWadi, Karnataka
8.1NWNalwar (2)07:30-07:30-  2609.2 78406mSCRGulbarga, Karnataka
8.2SPHLShampurhalli  07:36-07:36-  2616.2 78415mSCRShampurhalli, Karnataka
8.3TGDEThangundiX  07:43-07:43-  2625.2 78383mSCRThangundi, Karnataka
9YGYadgir (3)  07:50+307:52+32m12634.687369mSCRYadgir, Karnataka
9.1LGRELingiri (2)X  07:59-07:59-  2645.0 87374mSCR585202, Karnataka
10SADPSaidapur (3)  08:08+608:10+62m12657.872377mSCRYadgir Dist., Karnataka
10.1CGTAChegunta (2)  08:19-08:19-  2668.7 72373mSCRMahabubnagar Dist., Telangana
10.2KSNKrishna (2)  08:27-08:27-  2678.0 72352mSCRDist Mahabubnagar, Telangana
10.3YDLPYadalapur (2)  08:29-08:29-  2680.8 72351mSCRRaichur Dist, Karnataka
10.4CKChiksugar (2)  08:34-08:34-  2686.8 72363mSCRChiksugar, Karnataka
10.5YSYermaras  08:41-08:41-  2694.3 72380mSCRState Highway 13, Karnataka
11RCRaichur Junction (3)X  08:48+908:50+102m12703.252406mSCRRaichur, Karnataka
11.1MRCMarichethalX  09:01-09:01-  2713.0 52380mSCRState Highway 13, Karnataka
11.2MTUMatmari  09:10-09:10-  2720.4 52371mSCRRaichur, Karnataka
11.3HPHHanumapura  09:20-09:20-  2728.8 52344mSCRState Highway 61, Karnataka
12MALMMantralayam Road (3)  09:23+809:25+172m12731.675335mSCRKurnool Tel: 08512-259830, Andhra Pradesh
12.1EGUIranagallu  09:31-09:31-  2739.0 75358mSCRDevarabetta-518349, Andhra Pradesh
12.2KOKosigi (2)  09:36-09:36-  2744.7 75379mSCRKurnool Dist., Andhra Pradesh
12.3KGLKupgal (2)  09:46-09:46-  2758.4 75417mSCRKurnool Dist., Andhra Pradesh
12.4ESVIsivi (2)  09:53-09:53-  2766.3 75418mSCRadoni, Andhra Pradesh
13ADAdoni (4)X  09:58+2010:00+202m12772.852420mSCRAdoni Tel: 08512-252368, Andhra Pradesh
13.1NRRNagarur (2)  10:11-10:11-  2782.3 52427mSCRKurnool, Andhra Pradesh
13.2ASPAspari (2)  10:23-10:23-  2793.0 52460mSCRChinnahoturu, Andhra Pradesh
13.3MGVMolagavalli (2)  10:36-10:36-  2804.2 52470mSCRPeddahoturu, Andhra Pradesh
13.4NMLUNemakallu  10:43-10:43-  2810.1 52467mSCRNH 67, Andhra Pradesh
13.5NLANancherla (2)  10:49-10:49-  2815.5 52477mSCRAlur, Andhra Pradesh
14GTLGuntakal Junction (6)X11:00+1211:15+1615m62824.869453mSCRGuntakal. Tel: 08552-227131/32, Andhra Pradesh
14.1TIMTimmanacherla  11:18-11:18-  2828.0 69434mSCRGuntakal, Andhra Pradesh
14.2NKDONakkanadoddi  11:26-11:26-  2837.0 69391mSCRRayalaseema Region, Andhra Pradesh
14.3PLUPatakottacheruvu  11:30-11:30-  2841.8 69381mSCRRayalaseema Region, Andhra Pradesh
15GYGooty Junction (2)  11:40+2211:42+222m12853.470370mSCRNH 7 Anantapur District, Andhra Pradesh
15.1GYJGooty Cabin  11:44-11:44-  2855.5 70374mSCRBangalore-Hyderabad Highway, Andhra Pradesh
15.2JKOJakkalacheruvu  11:52-11:52-  2865.3 70334mSCRRayalaseema Region, Andhra Pradesh
15.3RLORayala Cheruvu (2)  12:02-12:02-  2877.0 70292mSCRRayalacheruvu, Andhra Pradesh
15.4VMLVemulapaduX  12:07-12:07-  2882.7 70269mSCRSH 57, Andhra Pradesh
15.5JURJutturu  12:12-12:12-  2889.0 70260mSCRTadipatri, Andhra Pradesh
15.6KMQAKomali  12:18-12:18-  2895.3 70246mSCRPappuru Rd, Andhra Pradesh
16TUTadipatri (3)12:23+2512:25+252m12901.570243mSCRAnantapuram Dist, Andhra Pradesh
16.1CLPEChallavaripalli  12:31-12:31-  2908.3 70229mSCRYallanur Rd, Andhra Pradesh
16.2VRNVanganur  12:36-12:36-  2914.3 70222mSCRRayalaseema Region, Andhra Pradesh
16.3RLLRegadipalliX  12:42-12:42-  2921.4 70223mSCRKadapa (YSR District), Andhra Pradesh
16.4KDPKondapuram (2)  12:49-12:49-  2929.5 70214mSCRKadapa (YSR District), Andhra Pradesh
16.5MUMMangapatnam  12:57-12:57-  2938.6 70218mSCRKadapa (YSR District), Andhra Pradesh
16.6CINChintakunta  13:02-13:02-  2945.2 70218mSCRWind Mill Service Road, Andhra Pradesh
16.7MOOMuddanuru (3)  13:09-13:09-  2953.1 70194mSCRKadapa (YSR District), Andhra Pradesh
16.8KMHKalamalia  13:16-13:16-  2961.8 70178mSCRKadapa (YSR District), Andhra Pradesh
17YAYerraguntla (2)  13:23+2213:25+222m--2969.455171mSCRKadapa / Cuddapah (YSR District), Andhra Pradesh
17.1YGDYerragudipad  13:34-13:34-  2977.9 55149mSCRKadapa (YSR District), Andhra Pradesh
17.2KKMKamalapuram (2)  13:42-13:42-  2984.8 55141mSCRKadapa (YSR District), Andhra Pradesh
17.3GPYGangayapalle  13:50-13:50-  2991.7 55137mSCRKadapa (YSR District), Andhra Pradesh
17.4KPUKrishnapuramX  14:00-14:00-  21001.0 55133mSCRKadapa (YSR District), Andhra Pradesh
18HXKadapa (3)  14:08+1614:10+172m221008.553146mSCRCuddapah, Andhra Pradesh
18.1KNLPKanamalo Palle  14:22-14:22-  21019.4 53188mSCRKadapa (YSR District), Andhra Pradesh
18.2BKPTBhakarapet  14:29-14:29-  21025.0 53145mSCRKadapa (YSR District), Andhra Pradesh
18.3VNMOntimitta (2)  14:35-14:35-  21030.8 53134mSCRKadapa (YSR District), Andhra Pradesh
18.4MMPLMantapampalle (1)X  14:48-14:48-  21041.6 53154mSCRKadapa (YSR District), Andhra Pradesh
18.5NRENandalur  14:56-14:56-  21049.0 53143mSCRRayalaseema Region, Andhra Pradesh
18.6HAQHastavaram  15:02-15:02-  21054.4 53143mSCRKadapa (YSR District), Andhra Pradesh
19RJPRazampeta (2)  15:08+715:10+82m--21059.572144mSCRKadapa (YSR District), Andhra Pradesh
19.1PMTPullampet  15:18-15:18-  21068.7 72159mSCRKadapa (YSR District), Andhra Pradesh
19.2RPLReddipalle  15:21-15:21-  21072.5 72175mSCRDr. Y.S. Rajasekhar Reddy, Andhra Pradesh
19.3OBVPObulavaripalli (2)X  15:27-15:27-  21079.9 72191mSCRRayalaseema Region, Andhra Pradesh
19.4ANEAnantarajupet  15:32-15:32-  21085.8 72197mSCRRayalaseema Region, Andhra Pradesh
20KOUKoduru (2)  15:38+815:40+82m--21093.138215mSCRKadapa (YSR District), Andhra Pradesh
20.1SFSettigunta  15:55-15:55-  21102.4 38214mSCRCoastal Andhra Region, Andhra Pradesh
20.2BLPEBalapalle  16:06-16:06-  21109.6 38246mSCRGangurajupodu, Andhra Pradesh
20.3MRMMamanduruX  16:22-16:22-  21119.4 38177mSCRChittoor, Andhra Pradesh
21RURenigunta Junction (5)X  16:45+017:00+515m121134.067113mSCRChittoor District, Andhra Pradesh
21.1PUDIPudi (2)  17:13-17:13-  21148.0 67158mSRChennai - Anantpur Rd, Andhra Pradesh
21.2SVFSri Venkataperu  17:13-17:13-  21148.1 67159mSRChennai - Tiruttani - Renigunta Hwy, Andhra Pradesh
21.3TDKTaduku  17:15-17:15-  21150.5 67183mSRChennai - Anantpur Rd, Andhra Pradesh
21.4PUTPuttur (3)  17:21-17:21-  21157.4 67149mSRPuttur, Andhra Pradesh
21.5VGAVepagunta  17:26-17:26-  21162.7 67143mSRNational Highway 205, Andhra Pradesh
21.6EKMEkambarakuppam  17:36-17:36-  21173.5 6780mSREkambarakuppam, Andhra Pradesh
21.7NGNagari  17:37-17:37-  21174.9 67118mSRRayalaseema Region, Andhra Pradesh
21.8VKZVenkatanarasimha Rajuvaripeta (1)O  17:41-17:41-  21179.6 67126mSRChittor district, Andhra Pradesh
21.9POIPonpadi (3)  17:44-17:44-  21182.6 67103mSRNational Highway 205, Tamil Nadu
21.10TRTTiruttani (3)X  17:50-17:50-  21189.8 6784mSRTiruttani, Tamil Nadu
21.11AJJNArakkonam North  18:00-18:00-  21201.1 6793mSRArakkonam, Tamil Nadu
22AJJArakkonam Junction (8)  18:03+718:05+82m521204.17991mSRArakkonam, Tamil Nadu
22.1PLMGPuliyamangalam  18:10-18:10-  21210.3 7966mSRArakkonam, Tamil Nadu
22.2MSUMosur  18:11-18:11-  21211.8 7961mSRArakkonam, Tamil Nadu
22.3TOTiruvalangaduX  18:13-18:13-  21214.5 7959mSRTiruvalangadu Rd, Tamil Nadu
22.4MAFManavur  18:17-18:17-  21219.8 7958mSRTiruvalangadu Rd, Tamil Nadu
22.5SPAMSenji Panambakkam  18:19-18:19-  21222.3 7954mSRKadambathur Rd, Tamil Nadu
22.6KBTKadambattur (2)  18:21-18:21-  21225.4 7950mSRKadambathur Bazaar Rd, Tamil Nadu
22.7EGTEgattur Halt  18:23-18:23-  21227.9 7950mSREgattur, Tamil Nadu
22.8TRLTiruvallur (6)  18:25-18:25-  21231.1 7950mSRTiruvallur, Tamil Nadu
22.9PTLRPutlur HaltX  18:28-18:28-  21233.8 7944mSRPutlur, Tamil Nadu
22.10SVRSevvapet Road  18:30-18:30-  21237.1 7938mSRSevvapet, Tamil Nadu
22.11VEUVeppampattuX  18:33-18:33-  21240.5 7939mSRChennai Tiruvallur High Rd, Tamil Nadu
22.12TITiruninravur (3)  18:35-18:35-  21243.7 7937mSRThirunindravur, Tamil Nadu
22.13NECNemilicherry Halt (2)  18:37-18:37-  21245.6 7931mSRNemilicherry, Tamil Nadu
22.14PRWSPattabiram West  18:37-18:37-  21246.3 7928mSRPattabiram, Tamil Nadu
22.15PABPattabiramX  18:38-18:38-  21247.8 7931mSRPattabiram, Tamil Nadu
22.16HCHindu College (2)  18:39-18:39-  21248.8 7928mSRPattabiram, Tamil Nadu
22.17AVDAvadi (4)  18:41-18:41-  21251.7 7928mSRPhone: 044-26555408, Tamil Nadu
22.18ANNRAnnanur (2)  18:43-18:43-  21254.4 7920mSRAmbattur, Tamil Nadu
22.19TMVLTirumullaivayil (2)  18:44-18:44-  21255.5 7921mSRAmbattur, Tamil Nadu
22.20ABUAmbattur (3)  18:45-18:45-  21257.2 7923mSRAmbatturavadi, Tamil Nadu
22.21PVMPattaravakkam (2)  18:47-18:47-  21258.7 7915mSRAmbattur, Tamil Nadu
22.22KOTRKorattur (2)  18:48-18:48-  21260.7 7916mSRKorattur, Tamil Nadu
22.23VLKVillivakkam (4)  18:50-18:50-  21263.5 7911mSRchennai central, Tamil Nadu
22.24PEWPerambur Locomotive Works (3)  18:51-18:51-  21265.2 7910mSRChennai, Tamil Nadu
22.25PCWPerambur Carriage Works (3)  18:53-18:53-  21266.6 7910mSRChennai, Tamil Nadu
23PERPerambur (4)  18:53+1518:55+162m--21267.3137mSRChennai-600011 Phone: 044-25510359, Tamil Nadu
23.1VPYVyasarpadi  19:01-19:01-  21268.6 135mSRChennai, Tamil Nadu
23.2VJMVyasarpadi Jeeva (2)  19:01-19:01-  21268.6 135mSRChennai, Tamil Nadu
23.3WSTWashermanpet (2)  19:14-19:14-  21271.4 1310mSRChennai, Tamil Nadu
23.4RPMRoyapuram (2)  19:20-19:20-  21272.8 137mSRChennai, Tamil Nadu
23.5MSBChennai Beach (8)  19:26-19:26-  21274.2 132mSRChennai-600001 Phone: 044-25234397, Tamil Nadu
23.6MSFChennai Fort (5)  19:33-19:33-  21275.8 135mSRChennai, Tamil Nadu
23.7MPKTChennai Park Town (2)  19:36-19:36-  21276.5 137mSRChennai, Tamil Nadu
23.8MPKChennai Park (3)  19:39-19:39-  21277.1 137mSRChennai, Tamil Nadu
24MS•Chennai Egmore (11)•  19:45+5-721278.5-8mSRChennai Ph No: 044-28194579, Tamil Nadu
Scroll to Top
Scroll to Bottom